Weather at Boise Air Terminal/Gowen Field

Public forecast

Using degrees Fahrenheit for public forecast. Weather courtesy of forecast.io.

Current aviation weather report (METAR) for Boise Air Terminal/Gowen Field

Retrieved 2020/09/27 19:53 UTC (13 minutes ago):

KBOI 271953Z 32012G19KT 10SM CLR 19/03 A3039 RMK AO2 SLP279 T01890033

Aviation forecast (TAF) for Boise Air Terminal/Gowen Field

Retrieved 2020/09/27 18:40 UTC (1 hour ago):

TAF KBOI 271737Z 2718/2818 31011G19KT P6SM SKC FM280100 VRB05KT P6SM SKC FM281000 15006KT P6SM SKC